sensor_id;sensor_type;location;lat;lon;timestamp;P1;P2;P0
76304;PMS7003;65111;50.536;19.204;2023-02-01T00:00:27;4.00;4.00;3.00
76304;PMS7003;65111;50.536;19.204;2023-02-01T00:02:53;3.00;3.00;1.00
76304;PMS7003;65111;50.536;19.204;2023-02-01T00:05:19;0.50;0.00;0.00
76304;PMS7003;65111;50.536;19.204;2023-02-01T00:07:46;6.00;4.00;2.00
76304;PMS7003;65111;50.536;19.204;2023-02-01T00:10:14;4.67;3.67;3.00
76304;PMS7003;65111;50.536;19.204;2023-02-01T00:12:40;3.00;3.00;1.00
76304;PMS7003;65111;50.536;19.204;2023-02-01T00:15:06;4.00;1.67;1.00
76304;PMS7003;65111;50.536;19.204;2023-02-01T00:17:33;3.00;3.00;3.00
76304;PMS7003;65111;50.536;19.204;2023-02-01T00:19:59;3.00;3.00;1.00
76304;PMS7003;65111;50.536;19.204;2023-02-01T00:22:25;0.67;0.67;0.00
76304;PMS7003;65111;50.536;19.204;2023-02-01T00:24:50;4.00;4.00;3.00
76304;PMS7003;65111;50.536;19.204;2023-02-01T00:27:16;4.00;3.00;1.00
76304;PMS7003;65111;50.536;19.204;2023-02-01T00:29:45;4.00;4.00;1.00
76304;PMS7003;65111;50.536;19.204;2023-02-01T00:32:11;3.00;1.00;1.00
76304;PMS7003;65111;50.536;19.204;2023-02-01T00:34:37;3.50;3.50;1.00
76304;PMS7003;65111;50.536;19.204;2023-02-01T00:37:03;3.00;3.00;3.00
76304;PMS7003;65111;50.536;19.204;2023-02-01T00:39:29;4.67;3.00;1.00
76304;PMS7003;65111;50.536;19.204;2023-02-01T00:41:55;3.00;3.00;1.00
76304;PMS7003;65111;50.536;19.204;2023-02-01T00:44:21;1.00;1.00;0.50
76304;PMS7003;65111;50.536;19.204;2023-02-01T00:46:47;3.00;0.00;0.00
76304;PMS7003;65111;50.536;19.204;2023-02-01T00:49:13;2.00;1.00;1.00
76304;PMS7003;65111;50.536;19.204;2023-02-01T00:51:39;0.00;0.00;0.00
76304;PMS7003;65111;50.536;19.204;2023-02-01T00:54:04;0.33;0.33;0.00
76304;PMS7003;65111;50.536;19.204;2023-02-01T00:56:30;0.00;0.00;0.00
76304;PMS7003;65111;50.536;19.204;2023-02-01T00:58:57;1.00;1.00;0.00
76304;PMS7003;65111;50.536;19.204;2023-02-01T01:01:24;0.00;0.00;0.00
76304;PMS7003;65111;50.536;19.204;2023-02-01T01:03:53;0.00;0.00;0.00
76304;PMS7003;65111;50.536;19.204;2023-02-01T01:06:22;1.00;1.00;0.00
76304;PMS7003;65111;50.536;19.204;2023-02-01T01:08:53;0.00;0.00;0.00
76304;PMS7003;65111;50.536;19.204;2023-02-01T01:11:22;0.50;0.50;0.00
76304;PMS7003;65111;50.536;19.204;2023-02-01T01:13:50;0.00;0.00;0.00
76304;PMS7003;65111;50.536;19.204;2023-02-01T01:16:18;0.00;0.00;0.00
76304;PMS7003;65111;50.536;19.204;2023-02-01T01:18:45;0.00;0.00;0.00
76304;PMS7003;65111;50.536;19.204;2023-02-01T01:21:12;0.00;0.00;0.00
76304;PMS7003;65111;50.536;19.204;2023-02-01T01:23:40;0.00;0.00;0.00
76304;PMS7003;65111;50.536;19.204;2023-02-01T01:26:07;0.00;0.00;0.00
76304;PMS7003;65111;50.536;19.204;2023-02-01T01:28:39;0.00;0.00;0.00
76304;PMS7003;65111;50.536;19.204;2023-02-01T01:31:08;0.00;0.00;0.00
76304;PMS7003;65111;50.536;19.204;2023-02-01T01:33:36;0.00;0.00;0.00
76304;PMS7003;65111;50.536;19.204;2023-02-01T01:36:04;0.00;0.00;0.00
76304;PMS7003;65111;50.536;19.204;2023-02-01T01:38:31;0.00;0.00;0.00
76304;PMS7003;65111;50.536;19.204;2023-02-01T01:40:57;0.00;0.00;0.00
76304;PMS7003;65111;50.536;19.204;2023-02-01T01:43:23;0.00;0.00;0.00
76304;PMS7003;65111;50.536;19.204;2023-02-01T01:45:49;4.00;0.00;0.00
76304;PMS7003;65111;50.536;19.204;2023-02-01T01:48:29;0.00;0.00;0.00
76304;PMS7003;65111;50.536;19.204;2023-02-01T01:51:09;0.00;0.00;0.00
76304;PMS7003;65111;50.536;19.204;2023-02-01T01:53:45;0.00;0.00;0.00
76304;PMS7003;65111;50.536;19.204;2023-02-01T01:56:17;0.00;0.00;0.00
76304;PMS7003;65111;50.536;19.204;2023-02-01T01:58:43;0.00;0.00;0.00
76304;PMS7003;65111;50.536;19.204;2023-02-01T02:01:09;0.00;0.00;0.00
76304;PMS7003;65111;50.536;19.204;2023-02-01T02:03:42;0.00;0.00;0.00
76304;PMS7003;65111;50.536;19.204;2023-02-01T02:06:15;0.00;0.00;0.00
76304;PMS7003;65111;50.536;19.204;2023-02-01T02:08:52;0.00;0.00;0.00
76304;PMS7003;65111;50.536;19.204;2023-02-01T02:11:17;0.00;0.00;0.00
76304;PMS7003;65111;50.536;19.204;2023-02-01T02:13:45;0.00;0.00;0.00
76304;PMS7003;65111;50.536;19.204;2023-02-01T02:38:45;0.00;0.00;0.00
76304;PMS7003;65111;50.536;19.204;2023-02-01T02:41:15;0.00;0.00;0.00
76304;PMS7003;65111;50.536;19.204;2023-02-01T02:50:24;0.00;0.00;0.00
76304;PMS7003;65111;50.536;19.204;2023-02-01T02:53:17;0.00;0.00;0.00
76304;PMS7003;65111;50.536;19.204;2023-02-01T02:56:06;0.00;0.00;0.00
76304;PMS7003;65111;50.536;19.204;2023-02-01T02:58:53;0.00;0.00;0.00
76304;PMS7003;65111;50.536;19.204;2023-02-01T03:01:39;0.00;0.00;0.00
76304;PMS7003;65111;50.536;19.204;2023-02-01T03:04:25;0.67;0.00;0.00
76304;PMS7003;65111;50.536;19.204;2023-02-01T03:06:51;0.00;0.00;0.00
76304;PMS7003;65111;50.536;19.204;2023-02-01T03:09:51;0.00;0.00;0.00
76304;PMS7003;65111;50.536;19.204;2023-02-01T03:12:12;0.00;0.00;0.00
76304;PMS7003;65111;50.536;19.204;2023-02-01T03:15:00;0.00;0.00;0.00
76304;PMS7003;65111;50.536;19.204;2023-02-01T03:17:34;0.00;0.00;0.00
76304;PMS7003;65111;50.536;19.204;2023-02-01T03:20:08;0.00;0.00;0.00
76304;PMS7003;65111;50.536;19.204;2023-02-01T03:22:36;0.00;0.00;0.00
76304;PMS7003;65111;50.536;19.204;2023-02-01T03:25:05;0.00;0.00;0.00
76304;PMS7003;65111;50.536;19.204;2023-02-01T03:27:53;0.00;0.00;0.00
76304;PMS7003;65111;50.536;19.204;2023-02-01T03:30:25;0.00;0.00;0.00
76304;PMS7003;65111;50.536;19.204;2023-02-01T03:32:55;0.00;0.00;0.00
76304;PMS7003;65111;50.536;19.204;2023-02-01T03:35:48;0.00;0.00;0.00
76304;PMS7003;65111;50.536;19.204;2023-02-01T03:38:20;0.00;0.00;0.00
76304;PMS7003;65111;50.536;19.204;2023-02-01T03:46:38;0.00;0.00;0.00
76304;PMS7003;65111;50.536;19.204;2023-02-01T03:49:13;3.00;1.00;0.00
76304;PMS7003;65111;50.536;19.204;2023-02-01T03:51:48;1.00;0.00;0.00
76304;PMS7003;65111;50.536;19.204;2023-02-01T03:54:16;0.00;0.00;0.00
76304;PMS7003;65111;50.536;19.204;2023-02-01T03:56:44;0.00;0.00;0.00
76304;PMS7003;65111;50.536;19.204;2023-02-01T03:59:13;0.00;0.00;0.00
76304;PMS7003;65111;50.536;19.204;2023-02-01T04:01:40;0.00;0.00;0.00
76304;PMS7003;65111;50.536;19.204;2023-02-01T04:04:06;0.00;0.00;0.00
76304;PMS7003;65111;50.536;19.204;2023-02-01T04:08:58;0.00;0.00;0.00
76304;PMS7003;65111;50.536;19.204;2023-02-01T04:11:24;0.00;0.00;0.00
76304;PMS7003;65111;50.536;19.204;2023-02-01T04:13:50;0.00;0.00;0.00
76304;PMS7003;65111;50.536;19.204;2023-02-01T04:16:16;0.00;0.00;0.00
76304;PMS7003;65111;50.536;19.204;2023-02-01T04:18:41;1.00;1.00;0.00
76304;PMS7003;65111;50.536;19.204;2023-02-01T04:21:07;0.00;0.00;0.00
76304;PMS7003;65111;50.536;19.204;2023-02-01T04:23:33;0.00;0.00;0.00
76304;PMS7003;65111;50.536;19.204;2023-02-01T04:26:02;0.50;0.50;0.00
76304;PMS7003;65111;50.536;19.204;2023-02-01T04:28:29;3.00;1.00;1.00
76304;PMS7003;65111;50.536;19.204;2023-02-01T04:30:56;0.00;0.00;0.00
76304;PMS7003;65111;50.536;19.204;2023-02-01T04:33:22;0.00;0.00;0.00
76304;PMS7003;65111;50.536;19.204;2023-02-01T04:35:48;0.00;0.00;0.00
76304;PMS7003;65111;50.536;19.204;2023-02-01T04:38:14;2.67;0.00;0.00
76304;PMS7003;65111;50.536;19.204;2023-02-01T04:40:40;2.33;0.00;0.00
76304;PMS7003;65111;50.536;19.204;2023-02-01T04:43:06;3.00;3.00;0.33
76304;PMS7003;65111;50.536;19.204;2023-02-01T04:45:33;0.00;0.00;0.00
76304;PMS7003;65111;50.536;19.204;2023-02-01T04:47:59;0.00;0.00;0.00
76304;PMS7003;65111;50.536;19.204;2023-02-01T04:50:25;0.00;0.00;0.00
76304;PMS7003;65111;50.536;19.204;2023-02-01T04:52:51;0.50;0.50;0.00
76304;PMS7003;65111;50.536;19.204;2023-02-01T04:55:17;1.00;1.00;1.00
76304;PMS7003;65111;50.536;19.204;2023-02-01T04:57:43;0.00;0.00;0.00
76304;PMS7003;65111;50.536;19.204;2023-02-01T05:00:09;1.00;0.00;0.00
76304;PMS7003;65111;50.536;19.204;2023-02-01T05:02:36;0.00;0.00;0.00
76304;PMS7003;65111;50.536;19.204;2023-02-01T05:05:03;0.00;0.00;0.00
76304;PMS7003;65111;50.536;19.204;2023-02-01T05:07:29;0.00;0.00;0.00
76304;PMS7003;65111;50.536;19.204;2023-02-01T05:09:55;0.50;0.00;0.00
76304;PMS7003;65111;50.536;19.204;2023-02-01T05:12:21;0.50;0.00;0.00
76304;PMS7003;65111;50.536;19.204;2023-02-01T05:15:06;1.00;1.00;0.00
76304;PMS7003;65111;50.536;19.204;2023-02-01T05:17:32;0.00;0.00;0.00
76304;PMS7003;65111;50.536;19.204;2023-02-01T05:19:58;0.00;0.00;0.00
76304;PMS7003;65111;50.536;19.204;2023-02-01T05:22:24;0.00;0.00;0.00
76304;PMS7003;65111;50.536;19.204;2023-02-01T05:24:50;0.00;0.00;0.00
76304;PMS7003;65111;50.536;19.204;2023-02-01T05:27:15;0.00;0.00;0.00
76304;PMS7003;65111;50.536;19.204;2023-02-01T05:29:41;0.00;0.00;0.00
76304;PMS7003;65111;50.536;19.204;2023-02-01T05:32:09;0.00;0.00;0.00
76304;PMS7003;65111;50.536;19.204;2023-02-01T05:34:36;1.00;0.00;0.00
76304;PMS7003;65111;50.536;19.204;2023-02-01T05:37:02;0.00;0.00;0.00
76304;PMS7003;65111;50.536;19.204;2023-02-01T05:39:28;0.00;0.00;0.00
76304;PMS7003;65111;50.536;19.204;2023-02-01T05:41:54;0.00;0.00;0.00
76304;PMS7003;65111;50.536;19.204;2023-02-01T05:44:20;0.33;0.33;0.00
76304;PMS7003;65111;50.536;19.204;2023-02-01T05:46:46;1.00;0.00;0.00
76304;PMS7003;65111;50.536;19.204;2023-02-01T05:49:12;1.00;0.00;0.00
76304;PMS7003;65111;50.536;19.204;2023-02-01T05:51:38;0.00;0.00;0.00
76304;PMS7003;65111;50.536;19.204;2023-02-01T05:54:04;0.00;0.00;0.00
76304;PMS7003;65111;50.536;19.204;2023-02-01T05:56:30;1.00;1.00;0.00
76304;PMS7003;65111;50.536;19.204;2023-02-01T05:58:56;1.00;1.00;0.67
76304;PMS7003;65111;50.536;19.204;2023-02-01T06:01:22;1.00;0.00;0.00
76304;PMS7003;65111;50.536;19.204;2023-02-01T06:03:48;0.00;0.00;0.00
76304;PMS7003;65111;50.536;19.204;2023-02-01T06:06:14;1.00;1.00;0.00
76304;PMS7003;65111;50.536;19.204;2023-02-01T06:08:40;0.00;0.00;0.00
76304;PMS7003;65111;50.536;19.204;2023-02-01T06:11:05;0.00;0.00;0.00
76304;PMS7003;65111;50.536;19.204;2023-02-01T06:13:32;0.00;0.00;0.00
76304;PMS7003;65111;50.536;19.204;2023-02-01T06:15:58;0.00;0.00;0.00
76304;PMS7003;65111;50.536;19.204;2023-02-01T06:18:24;0.00;0.00;0.00
76304;PMS7003;65111;50.536;19.204;2023-02-01T06:20:54;0.00;0.00;0.00
76304;PMS7003;65111;50.536;19.204;2023-02-01T06:23:21;0.00;0.00;0.00
76304;PMS7003;65111;50.536;19.204;2023-02-01T06:25:50;1.00;1.00;0.00
76304;PMS7003;65111;50.536;19.204;2023-02-01T06:28:17;0.00;0.00;0.00
76304;PMS7003;65111;50.536;19.204;2023-02-01T06:30:43;0.00;0.00;0.00
76304;PMS7003;65111;50.536;19.204;2023-02-01T06:33:14;0.00;0.00;0.00
76304;PMS7003;65111;50.536;19.204;2023-02-01T06:35:43;0.00;0.00;0.00
76304;PMS7003;65111;50.536;19.204;2023-02-01T06:38:10;0.00;0.00;0.00
76304;PMS7003;65111;50.536;19.204;2023-02-01T06:40:37;1.00;0.00;0.00
76304;PMS7003;65111;50.536;19.204;2023-02-01T06:43:04;0.00;0.00;0.00
76304;PMS7003;65111;50.536;19.204;2023-02-01T06:45:30;2.33;0.67;0.67
76304;PMS7003;65111;50.536;19.204;2023-02-01T06:47:56;0.00;0.00;0.00
76304;PMS7003;65111;50.536;19.204;2023-02-01T06:50:25;0.00;0.00;0.00
76304;PMS7003;65111;50.536;19.204;2023-02-01T06:52:51;0.00;0.00;0.00
76304;PMS7003;65111;50.536;19.204;2023-02-01T06:55:17;0.00;0.00;0.00
76304;PMS7003;65111;50.536;19.204;2023-02-01T06:57:43;2.00;2.00;0.00
76304;PMS7003;65111;50.536;19.204;2023-02-01T07:00:09;3.00;0.00;0.00
76304;PMS7003;65111;50.536;19.204;2023-02-01T07:02:36;0.00;0.00;0.00
76304;PMS7003;65111;50.536;19.204;2023-02-01T07:05:03;0.00;0.00;0.00
76304;PMS7003;65111;50.536;19.204;2023-02-01T07:07:29;3.00;0.00;0.00
76304;PMS7003;65111;50.536;19.204;2023-02-01T07:09:55;0.00;0.00;0.00
76304;PMS7003;65111;50.536;19.204;2023-02-01T07:12:21;0.00;0.00;0.00
76304;PMS7003;65111;50.536;19.204;2023-02-01T07:14:47;0.00;0.00;0.00
76304;PMS7003;65111;50.536;19.204;2023-02-01T07:17:13;4.00;0.00;0.00
76304;PMS7003;65111;50.536;19.204;2023-02-01T07:19:39;1.50;0.00;0.00
76304;PMS7003;65111;50.536;19.204;2023-02-01T07:22:05;0.00;0.00;0.00
76304;PMS7003;65111;50.536;19.204;2023-02-01T07:24:31;0.00;0.00;0.00
76304;PMS7003;65111;50.536;19.204;2023-02-01T07:26:57;0.50;0.50;0.00
76304;PMS7003;65111;50.536;19.204;2023-02-01T07:29:23;1.00;1.00;0.00
76304;PMS7003;65111;50.536;19.204;2023-02-01T07:31:49;1.00;1.00;0.50
76304;PMS7003;65111;50.536;19.204;2023-02-01T07:34:15;1.67;1.00;0.67
76304;PMS7003;65111;50.536;19.204;2023-02-01T07:36:41;1.67;1.00;1.00
76304;PMS7003;65111;50.536;19.204;2023-02-01T07:39:07;0.00;0.00;0.00
76304;PMS7003;65111;50.536;19.204;2023-02-01T07:41:33;3.00;0.33;0.00
76304;PMS7003;65111;50.536;19.204;2023-02-01T07:43:59;1.00;1.00;1.00
76304;PMS7003;65111;50.536;19.204;2023-02-01T07:46:25;1.00;1.00;0.50
76304;PMS7003;65111;50.536;19.204;2023-02-01T07:48:51;0.00;0.00;0.00
76304;PMS7003;65111;50.536;19.204;2023-02-01T07:51:17;1.00;1.00;0.00
76304;PMS7003;65111;50.536;19.204;2023-02-01T07:53:44;3.00;1.00;1.00
76304;PMS7003;65111;50.536;19.204;2023-02-01T07:56:14;2.00;1.00;1.00
76304;PMS7003;65111;50.536;19.204;2023-02-01T07:58:42;0.00;0.00;0.00
76304;PMS7003;65111;50.536;19.204;2023-02-01T08:01:22;0.33;0.00;0.00
76304;PMS7003;65111;50.536;19.204;2023-02-01T08:03:51;0.00;0.00;0.00
76304;PMS7003;65111;50.536;19.204;2023-02-01T08:06:19;3.67;2.33;1.00
76304;PMS7003;65111;50.536;19.204;2023-02-01T08:08:46;1.67;1.00;0.00
76304;PMS7003;65111;50.536;19.204;2023-02-01T08:11:14;0.00;0.00;0.00
76304;PMS7003;65111;50.536;19.204;2023-02-01T08:13:40;1.00;1.00;0.00
76304;PMS7003;65111;50.536;19.204;2023-02-01T08:16:08;1.00;1.00;0.00
76304;PMS7003;65111;50.536;19.204;2023-02-01T08:18:36;0.00;0.00;0.00
76304;PMS7003;65111;50.536;19.204;2023-02-01T08:21:04;1.00;1.00;0.33
76304;PMS7003;65111;50.536;19.204;2023-02-01T08:23:32;1.00;1.00;1.00
76304;PMS7003;65111;50.536;19.204;2023-02-01T08:26:06;1.00;1.00;1.00
76304;PMS7003;65111;50.536;19.204;2023-02-01T08:28:56;1.00;1.00;1.00
76304;PMS7003;65111;50.536;19.204;2023-02-01T08:31:25;4.00;1.00;0.00
76304;PMS7003;65111;50.536;19.204;2023-02-01T08:33:54;3.00;3.00;1.00
76304;PMS7003;65111;50.536;19.204;2023-02-01T08:36:22;0.00;0.00;0.00
76304;PMS7003;65111;50.536;19.204;2023-02-01T08:38:49;0.00;0.00;0.00
76304;PMS7003;65111;50.536;19.204;2023-02-01T08:41:17;2.33;2.33;1.00
76304;PMS7003;65111;50.536;19.204;2023-02-01T08:43:44;1.00;1.00;1.00
76304;PMS7003;65111;50.536;19.204;2023-02-01T08:46:11;2.33;2.33;2.33
76304;PMS7003;65111;50.536;19.204;2023-02-01T08:48:37;1.00;1.00;1.00
76304;PMS7003;65111;50.536;19.204;2023-02-01T08:51:05;1.00;1.00;1.00
76304;PMS7003;65111;50.536;19.204;2023-02-01T08:53:33;1.00;1.00;0.50
76304;PMS7003;65111;50.536;19.204;2023-02-01T08:56:01;1.00;1.00;0.00
76304;PMS7003;65111;50.536;19.204;2023-02-01T08:58:27;3.00;3.00;1.00
76304;PMS7003;65111;50.536;19.204;2023-02-01T09:00:53;1.00;1.00;1.00
76304;PMS7003;65111;50.536;19.204;2023-02-01T09:03:20;5.00;3.50;1.00
76304;PMS7003;65111;50.536;19.204;2023-02-01T09:05:46;1.67;1.00;1.00
76304;PMS7003;65111;50.536;19.204;2023-02-01T09:08:13;3.00;3.00;1.00
76304;PMS7003;65111;50.536;19.204;2023-02-01T09:10:40;1.00;1.00;1.00
76304;PMS7003;65111;50.536;19.204;2023-02-01T09:13:07;4.00;1.00;1.00
76304;PMS7003;65111;50.536;19.204;2023-02-01T09:15:34;1.67;1.00;0.00
76304;PMS7003;65111;50.536;19.204;2023-02-01T09:18:00;1.00;1.00;0.00
76304;PMS7003;65111;50.536;19.204;2023-02-01T09:20:26;3.00;3.00;1.00
76304;PMS7003;65111;50.536;19.204;2023-02-01T09:22:54;1.00;1.00;0.00
76304;PMS7003;65111;50.536;19.204;2023-02-01T09:25:20;3.00;1.00;0.00
76304;PMS7003;65111;50.536;19.204;2023-02-01T09:27:46;1.00;1.00;0.00
76304;PMS7003;65111;50.536;19.204;2023-02-01T09:30:12;3.00;3.00;2.00
76304;PMS7003;65111;50.536;19.204;2023-02-01T09:32:38;4.00;4.00;1.00
76304;PMS7003;65111;50.536;19.204;2023-02-01T09:35:05;6.00;3.00;3.00
76304;PMS7003;65111;50.536;19.204;2023-02-01T09:37:31;4.00;3.00;1.00
76304;PMS7003;65111;50.536;19.204;2023-02-01T09:39:58;3.67;3.67;3.00
76304;PMS7003;65111;50.536;19.204;2023-02-01T09:42:34;3.50;3.00;3.00
76304;PMS7003;65111;50.536;19.204;2023-02-01T09:45:17;3.00;3.00;3.00
76304;PMS7003;65111;50.536;19.204;2023-02-01T09:47:47;3.50;3.00;2.00
76304;PMS7003;65111;50.536;19.204;2023-02-01T09:50:33;1.00;1.00;1.00
76304;PMS7003;65111;50.536;19.204;2023-02-01T09:53:17;6.00;6.00;3.00
76304;PMS7003;65111;50.536;19.204;2023-02-01T09:55:48;11.00;9.00;5.00
76304;PMS7003;65111;50.536;19.204;2023-02-01T09:58:20;4.00;4.00;4.00
76304;PMS7003;65111;50.536;19.204;2023-02-01T10:00:53;6.00;3.00;3.00
76304;PMS7003;65111;50.536;19.204;2023-02-01T10:03:32;3.00;3.00;1.00
76304;PMS7003;65111;50.536;19.204;2023-02-01T10:11:46;9.00;9.00;7.00
76304;PMS7003;65111;50.536;19.204;2023-02-01T10:14:38;10.00;6.00;4.00
76304;PMS7003;65111;50.536;19.204;2023-02-01T10:22:27;3.00;3.00;3.00
76304;PMS7003;65111;50.536;19.204;2023-02-01T10:25:02;4.00;4.00;3.00
76304;PMS7003;65111;50.536;19.204;2023-02-01T10:27:49;3.00;3.00;1.00
76304;PMS7003;65111;50.536;19.204;2023-02-01T10:30:21;6.00;6.00;3.00
76304;PMS7003;65111;50.536;19.204;2023-02-01T10:32:49;12.00;9.50;7.00
76304;PMS7003;65111;50.536;19.204;2023-02-01T10:35:38;13.00;12.00;7.00
76304;PMS7003;65111;50.536;19.204;2023-02-01T10:38:14;6.67;6.00;4.67
76304;PMS7003;65111;50.536;19.204;2023-02-01T10:40:48;6.00;6.00;3.00
76304;PMS7003;65111;50.536;19.204;2023-02-01T10:43:15;5.00;5.00;3.50
76304;PMS7003;65111;50.536;19.204;2023-02-01T10:45:41;7.00;6.00;3.00
76304;PMS7003;65111;50.536;19.204;2023-02-01T10:48:08;7.00;4.00;3.00
76304;PMS7003;65111;50.536;19.204;2023-02-01T10:56:14;2.33;2.33;1.00
76304;PMS7003;65111;50.536;19.204;2023-02-01T10:58:43;1.00;1.00;1.00
76304;PMS7003;65111;50.536;19.204;2023-02-01T11:01:19;8.00;5.00;4.00
76304;PMS7003;65111;50.536;19.204;2023-02-01T11:04:10;3.50;3.50;3.00
76304;PMS7003;65111;50.536;19.204;2023-02-01T11:06:39;6.00;6.00;4.00
76304;PMS7003;65111;50.536;19.204;2023-02-01T11:11:54;6.67;6.00;3.67
76304;PMS7003;65111;50.536;19.204;2023-02-01T11:16:51;6.00;3.00;3.00
76304;PMS7003;65111;50.536;19.204;2023-02-01T11:19:19;3.00;2.00;1.00
76304;PMS7003;65111;50.536;19.204;2023-02-01T11:21:53;3.00;3.00;3.00
76304;PMS7003;65111;50.536;19.204;2023-02-01T11:24:29;6.00;4.00;2.33
76304;PMS7003;65111;50.536;19.204;2023-02-01T11:27:02;6.00;4.00;3.00
76304;PMS7003;65111;50.536;19.204;2023-02-01T11:29:35;6.00;6.00;4.00
76304;PMS7003;65111;50.536;19.204;2023-02-01T11:32:05;4.00;4.00;3.33
76304;PMS7003;65111;50.536;19.204;2023-02-01T11:34:38;3.00;3.00;2.33
76304;PMS7003;65111;50.536;19.204;2023-02-01T11:37:13;6.00;4.00;3.00
76304;PMS7003;65111;50.536;19.204;2023-02-01T11:40:04;1.00;1.00;1.00
76304;PMS7003;65111;50.536;19.204;2023-02-01T11:42:57;6.00;1.00;1.00
76304;PMS7003;65111;50.536;19.204;2023-02-01T11:45:29;2.00;2.00;1.00
76304;PMS7003;65111;50.536;19.204;2023-02-01T11:47:57;4.00;4.00;3.00
76304;PMS7003;65111;50.536;19.204;2023-02-01T11:50:29;1.00;1.00;1.00
76304;PMS7003;65111;50.536;19.204;2023-02-01T11:53:06;1.00;1.00;1.00
76304;PMS7003;65111;50.536;19.204;2023-02-01T12:06:40;6.00;4.00;3.00
76304;PMS7003;65111;50.536;19.204;2023-02-01T12:09:23;3.00;3.00;3.00
76304;PMS7003;65111;50.536;19.204;2023-02-01T12:17:44;1.00;1.00;1.00
76304;PMS7003;65111;50.536;19.204;2023-02-01T12:23:32;3.00;0.00;0.00
76304;PMS7003;65111;50.536;19.204;2023-02-01T12:31:28;1.00;1.00;0.50
76304;PMS7003;65111;50.536;19.204;2023-02-01T12:42:30;2.33;1.00;0.33
76304;PMS7003;65111;50.536;19.204;2023-02-01T12:45:06;1.00;1.00;1.00
76304;PMS7003;65111;50.536;19.204;2023-02-01T12:50:40;1.00;1.00;1.00
76304;PMS7003;65111;50.536;19.204;2023-02-01T12:53:15;1.00;1.00;0.00
76304;PMS7003;65111;50.536;19.204;2023-02-01T12:55:50;1.00;1.00;0.00
76304;PMS7003;65111;50.536;19.204;2023-02-01T12:58:27;0.00;0.00;0.00
76304;PMS7003;65111;50.536;19.204;2023-02-01T13:03:44;0.00;0.00;0.00
76304;PMS7003;65111;50.536;19.204;2023-02-01T13:06:17;1.00;1.00;1.00
76304;PMS7003;65111;50.536;19.204;2023-02-01T13:08:48;3.67;0.00;0.00
76304;PMS7003;65111;50.536;19.204;2023-02-01T13:14:19;0.50;0.50;0.50
76304;PMS7003;65111;50.536;19.204;2023-02-01T13:16:59;1.67;0.00;0.00
76304;PMS7003;65111;50.536;19.204;2023-02-01T13:22:14;0.50;0.50;0.00
76304;PMS7003;65111;50.536;19.204;2023-02-01T13:24:49;1.00;1.00;1.00
76304;PMS7003;65111;50.536;19.204;2023-02-01T13:27:22;1.00;1.00;0.67
76304;PMS7003;65111;50.536;19.204;2023-02-01T13:38:22;1.00;1.00;0.67
76304;PMS7003;65111;50.536;19.204;2023-02-01T13:43:29;1.00;1.00;1.00
76304;PMS7003;65111;50.536;19.204;2023-02-01T13:45:57;1.00;1.00;1.00
76304;PMS7003;65111;50.536;19.204;2023-02-01T13:49:03;1.00;1.00;1.00
76304;PMS7003;65111;50.536;19.204;2023-02-01T13:51:35;1.00;1.00;1.00
76304;PMS7003;65111;50.536;19.204;2023-02-01T13:54:06;7.00;4.00;3.00
76304;PMS7003;65111;50.536;19.204;2023-02-01T13:56:39;6.00;4.00;3.00
76304;PMS7003;65111;50.536;19.204;2023-02-01T14:02:35;3.00;3.00;3.00
76304;PMS7003;65111;50.536;19.204;2023-02-01T14:16:41;6.00;6.00;4.00
76304;PMS7003;65111;50.536;19.204;2023-02-01T14:19:09;4.00;3.50;3.00
76304;PMS7003;65111;50.536;19.204;2023-02-01T14:27:16;12.00;10.67;8.33
76304;PMS7003;65111;50.536;19.204;2023-02-01T14:29:50;6.50;6.50;6.00
76304;PMS7003;65111;50.536;19.204;2023-02-01T14:32:44;3.00;3.00;1.00
76304;PMS7003;65111;50.536;19.204;2023-02-01T14:35:23;6.00;6.00;3.00
76304;PMS7003;65111;50.536;19.204;2023-02-01T14:37:52;3.00;3.00;1.00
76304;PMS7003;65111;50.536;19.204;2023-02-01T14:40:24;1.00;1.00;1.00
76304;PMS7003;65111;50.536;19.204;2023-02-01T14:42:53;7.00;6.50;6.00
76304;PMS7003;65111;50.536;19.204;2023-02-01T14:50:34;7.00;6.00;4.00
76304;PMS7003;65111;50.536;19.204;2023-02-01T15:01:14;3.50;3.50;3.00
76304;PMS7003;65111;50.536;19.204;2023-02-01T15:03:53;2.00;2.00;1.00
76304;PMS7003;65111;50.536;19.204;2023-02-01T15:09:09;3.00;3.00;1.00
76304;PMS7003;65111;50.536;19.204;2023-02-01T15:14:29;2.33;2.33;1.00
76304;PMS7003;65111;50.536;19.204;2023-02-01T15:16:56;1.00;1.00;1.00
76304;PMS7003;65111;50.536;19.204;2023-02-01T15:19:24;1.00;1.00;1.00
76304;PMS7003;65111;50.536;19.204;2023-02-01T15:21:55;4.00;3.00;1.00
76304;PMS7003;65111;50.536;19.204;2023-02-01T15:24:23;1.00;1.00;0.67
76304;PMS7003;65111;50.536;19.204;2023-02-01T15:26:51;3.67;2.33;1.00
76304;PMS7003;65111;50.536;19.204;2023-02-01T15:29:20;3.00;3.00;1.00
76304;PMS7003;65111;50.536;19.204;2023-02-01T15:31:51;0.50;0.50;0.50
76304;PMS7003;65111;50.536;19.204;2023-02-01T15:34:18;3.00;1.00;1.00
76304;PMS7003;65111;50.536;19.204;2023-02-01T15:36:46;1.00;1.00;1.00
76304;PMS7003;65111;50.536;19.204;2023-02-01T15:39:14;1.67;1.67;1.67
76304;PMS7003;65111;50.536;19.204;2023-02-01T15:41:49;6.00;3.50;2.00
76304;PMS7003;65111;50.536;19.204;2023-02-01T15:44:32;1.00;1.00;1.00
76304;PMS7003;65111;50.536;19.204;2023-02-01T15:47:39;2.00;2.00;2.00
76304;PMS7003;65111;50.536;19.204;2023-02-01T15:49:58;6.00;4.00;3.00
76304;PMS7003;65111;50.536;19.204;2023-02-01T15:52:59;6.00;4.00;4.00
76304;PMS7003;65111;50.536;19.204;2023-02-01T15:55:26;4.00;4.00;4.00
76304;PMS7003;65111;50.536;19.204;2023-02-01T15:57:56;9.67;7.00;5.33
76304;PMS7003;65111;50.536;19.204;2023-02-01T16:00:25;8.00;6.00;3.50
76304;PMS7003;65111;50.536;19.204;2023-02-01T16:02:55;3.50;3.50;3.00
76304;PMS7003;65111;50.536;19.204;2023-02-01T16:08:21;3.00;3.00;1.00
76304;PMS7003;65111;50.536;19.204;2023-02-01T16:10:49;1.00;1.00;1.00
76304;PMS7003;65111;50.536;19.204;2023-02-01T16:13:19;7.00;7.00;3.67
76304;PMS7003;65111;50.536;19.204;2023-02-01T16:15:46;1.00;1.00;1.00
76304;PMS7003;65111;50.536;19.204;2023-02-01T16:18:13;4.00;3.00;3.00
76304;PMS7003;65111;50.536;19.204;2023-02-01T16:20:41;4.00;4.00;3.00
76304;PMS7003;65111;50.536;19.204;2023-02-01T16:23:08;1.00;1.00;1.00
76304;PMS7003;65111;50.536;19.204;2023-02-01T16:25:36;6.00;6.00;3.00
76304;PMS7003;65111;50.536;19.204;2023-02-01T16:28:03;0.50;0.00;0.00
76304;PMS7003;65111;50.536;19.204;2023-02-01T16:30:31;4.00;4.00;3.00
76304;PMS7003;65111;50.536;19.204;2023-02-01T16:32:58;4.00;4.00;4.00
76304;PMS7003;65111;50.536;19.204;2023-02-01T16:38:02;4.67;4.00;3.00
76304;PMS7003;65111;50.536;19.204;2023-02-01T16:40:34;7.00;4.00;3.00
76304;PMS7003;65111;50.536;19.204;2023-02-01T16:43:00;3.00;3.00;1.00
76304;PMS7003;65111;50.536;19.204;2023-02-01T16:45:26;0.00;0.00;0.00
76304;PMS7003;65111;50.536;19.204;2023-02-01T16:47:54;3.00;3.00;2.33
76304;PMS7003;65111;50.536;19.204;2023-02-01T16:50:23;3.00;1.00;1.00
76304;PMS7003;65111;50.536;19.204;2023-02-01T16:52:51;4.00;3.00;2.33
76304;PMS7003;65111;50.536;19.204;2023-02-01T16:55:18;3.00;1.00;1.00
76304;PMS7003;65111;50.536;19.204;2023-02-01T16:57:46;1.00;1.00;1.00
76304;PMS7003;65111;50.536;19.204;2023-02-01T17:00:13;1.00;1.00;1.00
76304;PMS7003;65111;50.536;19.204;2023-02-01T17:02:43;1.00;1.00;1.00
76304;PMS7003;65111;50.536;19.204;2023-02-01T17:05:11;1.00;1.00;1.00